createdAt,value
2018-06-13T00:00:24.578Z,99800
2018-06-13T00:01:44.803Z,99803
2018-06-13T00:02:49.662Z,99808
2018-06-13T00:03:55.224Z,99788
2018-06-13T00:05:00.394Z,99800
2018-06-13T00:06:05.546Z,99788
2018-06-13T00:07:11.050Z,99794
2018-06-13T00:08:16.493Z,99806
2018-06-13T00:09:21.923Z,99791
2018-06-13T00:10:27.903Z,99791
2018-06-13T00:11:33.348Z,99811
2018-06-13T00:12:38.624Z,99794
2018-06-13T00:13:43.500Z,99803
2018-06-13T00:14:47.793Z,99803
2018-06-13T00:15:52.635Z,99811
2018-06-13T00:16:57.512Z,99794
2018-06-13T00:18:02.381Z,99803
2018-06-13T00:19:06.945Z,99803
2018-06-13T00:20:10.961Z,99797
2018-06-13T00:21:16.404Z,99797
2018-06-13T00:22:21.804Z,99803
2018-06-13T00:23:26.954Z,99806
2018-06-13T00:24:32.881Z,99797
2018-06-13T00:25:37.746Z,99803
2018-06-13T00:26:42.906Z,99806
2018-06-13T00:27:47.598Z,99803
2018-06-13T00:28:53.053Z,99808
2018-06-13T00:29:58.205Z,99808
2018-06-13T00:31:03.727Z,99803
2018-06-13T00:32:08.593Z,99808
2018-06-13T00:33:13.472Z,99823
2018-06-13T00:34:19.048Z,99808
2018-06-13T00:35:24.497Z,99806
2018-06-13T00:36:30.095Z,99817
2018-06-13T00:37:34.971Z,99803
2018-06-13T00:38:40.402Z,99803
2018-06-13T00:39:45.728Z,99806
2018-06-13T00:40:50.880Z,99806
2018-06-13T00:41:56.325Z,99800
2018-06-13T00:43:01.753Z,99800
2018-06-13T00:44:07.231Z,99791
2018-06-13T00:45:12.375Z,99800
2018-06-13T00:46:17.618Z,99800
2018-06-13T00:47:23.051Z,99791
2018-06-13T00:48:28.279Z,99800
2018-06-13T00:49:33.737Z,99803
2018-06-13T00:50:38.614Z,99794
2018-06-13T00:51:44.047Z,99791
2018-06-13T00:52:49.491Z,99791
2018-06-13T00:53:54.360Z,99788
2018-06-13T00:54:59.483Z,99791
2018-06-13T00:56:04.654Z,99788
2018-06-13T00:57:09.247Z,99786
2018-06-13T00:58:14.365Z,99788
2018-06-13T00:59:19.524Z,99788
2018-06-13T01:00:24.676Z,99791
2018-06-13T01:01:45.119Z,99797
2018-06-13T01:02:50.564Z,99811
2018-06-13T01:03:56.070Z,99794
2018-06-13T01:05:01.229Z,99783
2018-06-13T01:06:06.676Z,99786
2018-06-13T01:07:12.572Z,99780
2018-06-13T01:08:18.027Z,99791
2018-06-13T01:09:23.463Z,99786
2018-06-13T01:10:29.285Z,99778
2018-06-13T01:11:34.731Z,99783
2018-06-13T01:12:39.831Z,99783
2018-06-13T01:13:45.279Z,99786
2018-06-13T01:14:50.488Z,99786
2018-06-13T01:15:56.296Z,99794
2018-06-13T01:17:01.174Z,99783
2018-06-13T01:18:06.054Z,99780
2018-06-13T01:19:11.225Z,99780
2018-06-13T01:20:16.663Z,99791
2018-06-13T01:21:21.805Z,99786
2018-06-13T01:22:27.399Z,99783
2018-06-13T01:23:32.828Z,99803
2018-06-13T01:24:38.668Z,99791
2018-06-13T01:25:44.117Z,99791
2018-06-13T01:26:49.290Z,99791
2018-06-13T01:27:54.702Z,99794
2018-06-13T01:29:00.154Z,99783
2018-06-13T01:30:05.304Z,99786
2018-06-13T01:31:10.797Z,99791
2018-06-13T01:32:15.681Z,99783
2018-06-13T01:33:20.844Z,99794
2018-06-13T01:34:25.961Z,99800
2018-06-13T01:35:30.840Z,99791
2018-06-13T01:36:35.670Z,99788
2018-06-13T01:37:41.124Z,99791
2018-06-13T01:38:45.994Z,99788
2018-06-13T01:39:51.391Z,99791
2018-06-13T01:40:56.257Z,99791
2018-06-13T01:42:01.710Z,99778
2018-06-13T01:43:06.644Z,99788
2018-06-13T01:44:11.514Z,99788
2018-06-13T01:45:16.111Z,99786
2018-06-13T01:46:21.327Z,99788
2018-06-13T01:47:26.760Z,99783
2018-06-13T01:48:32.264Z,99786
2018-06-13T01:49:37.721Z,99797
2018-06-13T01:50:42.871Z,99794
2018-06-13T01:51:48.373Z,99788
2018-06-13T01:52:53.809Z,99797
2018-06-13T01:53:58.674Z,99797
2018-06-13T01:55:04.078Z,99791
2018-06-13T01:56:09.222Z,99786
2018-06-13T01:57:14.390Z,99786
2018-06-13T01:58:19.793Z,99786
2018-06-13T01:59:24.688Z,99786
2018-06-13T02:00:29.738Z,99786
2018-06-13T02:01:34.940Z,99786
2018-06-13T02:02:39.520Z,99806
2018-06-13T02:03:45.320Z,99786
2018-06-13T02:04:50.476Z,99791
2018-06-13T02:05:55.905Z,99791
2018-06-13T02:07:01.406Z,99794
2018-06-13T02:08:06.010Z,99797
2018-06-13T02:09:10.877Z,99788
2018-06-13T02:10:16.563Z,99786
2018-06-13T02:11:21.706Z,99797
2018-06-13T02:12:27.786Z,99786
2018-06-13T02:13:33.221Z,99794
2018-06-13T02:14:38.654Z,99786
2018-06-13T02:15:44.213Z,99791
2018-06-13T02:16:49.364Z,99794
2018-06-13T02:17:54.239Z,99788
2018-06-13T02:18:59.799Z,99797
2018-06-13T02:20:04.970Z,99775
2018-06-13T02:21:10.143Z,99783
2018-06-13T02:22:15.566Z,99775
2018-06-13T02:23:21.004Z,99775
2018-06-13T02:24:41.111Z,99783
2018-06-13T02:25:46.246Z,99791
2018-06-13T02:26:51.401Z,99783
2018-06-13T02:27:57.185Z,99788
2018-06-13T02:29:02.050Z,99788
2018-06-13T02:30:06.639Z,99794
2018-06-13T02:31:11.764Z,99788
2018-06-13T02:32:16.905Z,99788
2018-06-13T02:33:21.205Z,99786
2018-06-13T02:34:26.704Z,99786
2018-06-13T02:35:31.574Z,99772
2018-06-13T02:36:37.047Z,99777
2018-06-13T02:37:42.496Z,99780
2018-06-13T02:38:47.640Z,99786
2018-06-13T02:39:53.327Z,99783
2018-06-13T02:40:58.469Z,99788
2018-06-13T02:42:03.351Z,99791
2018-06-13T02:43:08.000Z,99786
2018-06-13T02:44:13.144Z,99777
2018-06-13T02:45:18.602Z,99794
2018-06-13T02:46:23.720Z,99791
2018-06-13T02:47:28.888Z,99791
2018-06-13T02:48:34.488Z,99800
2018-06-13T02:49:39.361Z,99788
2018-06-13T02:50:44.541Z,99788
2018-06-13T02:51:50.233Z,99797
2018-06-13T02:52:55.660Z,99800
2018-06-13T02:54:00.830Z,99788
2018-06-13T02:55:05.823Z,99800
2018-06-13T02:56:11.268Z,99797
2018-06-13T02:57:16.722Z,99794
2018-06-13T02:58:21.848Z,99794
2018-06-13T02:59:26.438Z,99788
2018-06-13T03:00:31.861Z,99802
2018-06-13T03:01:37.030Z,99797
2018-06-13T03:02:42.198Z,99817
2018-06-13T03:03:47.984Z,99800
2018-06-13T03:04:53.143Z,99805
2018-06-13T03:05:57.741Z,99800
2018-06-13T03:07:03.239Z,99802
2018-06-13T03:08:08.386Z,99791
2018-06-13T03:09:13.269Z,99791
2018-06-13T03:10:18.396Z,99800
2018-06-13T03:11:23.848Z,99805
2018-06-13T03:12:29.778Z,99802
2018-06-13T03:13:35.234Z,99797
2018-06-13T03:14:39.532Z,99805
2018-06-13T03:15:45.078Z,99802
2018-06-13T03:16:50.525Z,99794
2018-06-13T03:17:55.669Z,99800
2018-06-13T03:19:01.071Z,99805
2018-06-13T03:20:06.220Z,99802
2018-06-13T03:21:10.817Z,99794
2018-06-13T03:22:16.148Z,99788
2018-06-13T03:23:21.583Z,99811
2018-06-13T03:24:27.570Z,99802
2018-06-13T03:25:32.736Z,99808
2018-06-13T03:26:37.603Z,99802
2018-06-13T03:27:43.018Z,99805
2018-06-13T03:28:48.166Z,99802
2018-06-13T03:29:53.038Z,99808
2018-06-13T03:30:58.490Z,99808
2018-06-13T03:32:03.646Z,99811
2018-06-13T03:33:08.799Z,99800
2018-06-13T03:34:13.928Z,99808
2018-06-13T03:35:19.365Z,99808
2018-06-13T03:36:24.260Z,99811
2018-06-13T03:37:44.797Z,99802
2018-06-13T03:38:49.962Z,99805
2018-06-13T03:39:55.083Z,99800
2018-06-13T03:41:00.614Z,99811
2018-06-13T03:42:05.858Z,99800
2018-06-13T03:43:10.131Z,99802
2018-06-13T03:44:15.284Z,99802
2018-06-13T03:45:19.870Z,99802
2018-06-13T03:46:25.286Z,99800
2018-06-13T03:47:30.722Z,99802
2018-06-13T03:48:36.517Z,99800
2018-06-13T03:49:41.670Z,99802
2018-06-13T03:50:46.537Z,99802
2018-06-13T03:51:52.368Z,99817
2018-06-13T03:52:57.235Z,99805
2018-06-13T03:54:02.419Z,99805
2018-06-13T03:55:07.673Z,99823
2018-06-13T03:56:12.258Z,99805
2018-06-13T03:57:17.124Z,99802
2018-06-13T03:58:22.805Z,99811
2018-06-13T03:59:27.971Z,99802
2018-06-13T04:00:33.876Z,99808
2018-06-13T04:01:39.029Z,99811
2018-06-13T04:02:43.936Z,99808
2018-06-13T04:03:49.078Z,99805
2018-06-13T04:04:54.241Z,99800
2018-06-13T04:05:59.685Z,99800
2018-06-13T04:07:04.531Z,99797
2018-06-13T04:08:09.175Z,99800
2018-06-13T04:09:14.615Z,99797
2018-06-13T04:10:20.294Z,99808
2018-06-13T04:11:25.737Z,99802
2018-06-13T04:12:31.190Z,99802
2018-06-13T04:13:36.670Z,99811
2018-06-13T04:14:41.929Z,99805
2018-06-13T04:15:47.569Z,99800
2018-06-13T04:16:53.016Z,99811
2018-06-13T04:17:57.863Z,99820
2018-06-13T04:19:03.291Z,99811
2018-06-13T04:20:08.434Z,99805
2018-06-13T04:21:13.309Z,99820
2018-06-13T04:22:18.720Z,99828
2018-06-13T04:23:23.878Z,99817
2018-06-13T04:24:30.509Z,99817
2018-06-13T04:25:35.944Z,99828
2018-06-13T04:26:41.383Z,99833
2018-06-13T04:27:46.784Z,99828
2018-06-13T04:28:51.954Z,99823
2018-06-13T04:29:57.101Z,99823
2018-06-13T04:31:02.783Z,99831
2018-06-13T04:32:07.657Z,99828
2018-06-13T04:33:12.800Z,99831
2018-06-13T04:34:18.233Z,99828
2018-06-13T04:35:23.398Z,99836
2018-06-13T04:36:29.154Z,99836
2018-06-13T04:37:34.317Z,99833
2018-06-13T04:38:39.464Z,99836
2018-06-13T04:39:45.146Z,99836
2018-06-13T04:40:50.623Z,99831
2018-06-13T04:41:56.198Z,99842
2018-06-13T04:43:01.434Z,99833
2018-06-13T04:44:06.590Z,99839
2018-06-13T04:45:11.463Z,99828
2018-06-13T04:46:16.435Z,99828
2018-06-13T04:47:21.592Z,99839
2018-06-13T04:48:27.494Z,99831
2018-06-13T04:49:32.922Z,99826
2018-06-13T04:50:38.360Z,99828
2018-06-13T04:51:44.144Z,99831
2018-06-13T04:52:49.301Z,99831
2018-06-13T04:53:54.165Z,99826
2018-06-13T04:54:59.593Z,99833
2018-06-13T04:56:05.046Z,99831
2018-06-13T04:57:10.477Z,99833
2018-06-13T04:58:16.023Z,99833
2018-06-13T04:59:20.957Z,99836
2018-06-13T05:00:26.126Z,99839
2018-06-13T05:01:46.584Z,99839
2018-06-13T05:02:51.757Z,99839
2018-06-13T05:03:57.450Z,99845
2018-06-13T05:05:02.326Z,99833
2018-06-13T05:06:07.208Z,99839
2018-06-13T05:07:12.906Z,99836
2018-06-13T05:08:18.058Z,99833
2018-06-13T05:09:23.491Z,99839
2018-06-13T05:10:29.230Z,99833
2018-06-13T05:11:34.113Z,99839
2018-06-13T05:12:39.220Z,99839
2018-06-13T05:13:44.366Z,99836
2018-06-13T05:14:49.616Z,99851
2018-06-13T05:15:54.993Z,99833
2018-06-13T05:16:59.870Z,99845
2018-06-13T05:18:05.301Z,99839
2018-06-13T05:19:10.703Z,99833
2018-06-13T05:20:16.159Z,99839
2018-06-13T05:21:21.313Z,99839
2018-06-13T05:22:26.865Z,99831
2018-06-13T05:23:32.295Z,99839
2018-06-13T05:24:37.977Z,99851
2018-06-13T05:25:43.141Z,99848
2018-06-13T05:26:48.323Z,99851
2018-06-13T05:27:53.537Z,99848
2018-06-13T05:28:58.400Z,99839
2018-06-13T05:30:03.308Z,99848
2018-06-13T05:31:08.734Z,99854
2018-06-13T05:32:13.887Z,99848
2018-06-13T05:33:19.040Z,99845
2018-06-13T05:34:24.787Z,99854
2018-06-13T05:35:30.168Z,99862
2018-06-13T05:36:35.107Z,99868
2018-06-13T05:37:40.437Z,99859
2018-06-13T05:38:45.610Z,99868
2018-06-13T05:39:51.013Z,99859
2018-06-13T05:40:55.635Z,99859
2018-06-13T05:42:01.066Z,99862
2018-06-13T05:43:06.188Z,99865
2018-06-13T05:44:11.071Z,99857
2018-06-13T05:45:16.270Z,99862
2018-06-13T05:46:22.394Z,99868
2018-06-13T05:47:27.829Z,99868
2018-06-13T05:48:33.715Z,99868
2018-06-13T05:49:38.595Z,99877
2018-06-13T05:50:44.024Z,99877
2018-06-13T05:51:49.526Z,99865
2018-06-13T05:52:54.668Z,99871
2018-06-13T05:53:59.819Z,99862
2018-06-13T05:55:05.506Z,99865
2018-06-13T05:56:10.572Z,99871
2018-06-13T05:57:15.150Z,99874
2018-06-13T05:58:20.280Z,99868
2018-06-13T05:59:25.171Z,99871
2018-06-13T06:00:30.861Z,99868
2018-06-13T06:01:36.360Z,99868
2018-06-13T06:02:41.521Z,99877
2018-06-13T06:03:46.477Z,99877
2018-06-13T06:04:51.356Z,99871
2018-06-13T06:05:56.220Z,99877
2018-06-13T06:07:01.482Z,99883
2018-06-13T06:08:06.358Z,99886
2018-06-13T06:09:10.938Z,99888
2018-06-13T06:10:16.699Z,99894
2018-06-13T06:11:21.992Z,99886
2018-06-13T06:12:27.323Z,99894
2018-06-13T06:13:32.490Z,99888
2018-06-13T06:14:37.652Z,99891
2018-06-13T06:15:43.334Z,99886
2018-06-13T06:16:48.769Z,99886
2018-06-13T06:17:53.925Z,99883
2018-06-13T06:18:59.857Z,99877
2018-06-13T06:20:04.935Z,99877
2018-06-13T06:21:10.130Z,99886
2018-06-13T06:22:15.827Z,99880
2018-06-13T06:23:21.266Z,99880
2018-06-13T06:24:41.600Z,99877
2018-06-13T06:25:47.033Z,99877
2018-06-13T06:26:52.191Z,99871
2018-06-13T06:27:57.595Z,99874
2018-06-13T06:29:02.460Z,99874
2018-06-13T06:30:07.342Z,99868
2018-06-13T06:31:12.277Z,99874
2018-06-13T06:32:17.360Z,99871
2018-06-13T06:33:22.797Z,99888
2018-06-13T06:34:27.911Z,99880
2018-06-13T06:35:33.348Z,99883
2018-06-13T06:36:38.594Z,99883
2018-06-13T06:37:44.022Z,99880
2018-06-13T06:38:49.176Z,99894
2018-06-13T06:39:54.311Z,99886
2018-06-13T06:40:59.465Z,99883
2018-06-13T06:42:04.402Z,99880
2018-06-13T06:43:09.875Z,99888
2018-06-13T06:44:15.032Z,99891
2018-06-13T06:45:19.625Z,99888
2018-06-13T06:46:24.975Z,99888
2018-06-13T06:47:30.117Z,99888
2018-06-13T06:48:35.803Z,99894
2018-06-13T06:49:40.720Z,99888
2018-06-13T06:50:45.704Z,99877
2018-06-13T06:51:51.130Z,99888
2018-06-13T06:52:56.274Z,99888
2018-06-13T06:54:01.726Z,99888
2018-06-13T06:55:05.926Z,99888
2018-06-13T06:56:11.112Z,99888
2018-06-13T06:57:15.713Z,99888
2018-06-13T06:58:21.545Z,99894
2018-06-13T06:59:26.740Z,99888
2018-06-13T07:00:32.295Z,99897
2018-06-13T07:01:37.169Z,99897
2018-06-13T07:02:42.203Z,99888
2018-06-13T07:03:47.764Z,99894
2018-06-13T07:04:53.259Z,99900
2018-06-13T07:05:58.429Z,99897
2018-06-13T07:07:03.258Z,99900
2018-06-13T07:08:09.019Z,99897
2018-06-13T07:09:14.201Z,99909
2018-06-13T07:10:19.718Z,99903
2018-06-13T07:11:24.549Z,99915
2018-06-13T07:12:30.057Z,99903
2018-06-13T07:13:35.492Z,99909
2018-06-13T07:14:40.367Z,99903
2018-06-13T07:15:45.783Z,99897
2018-06-13T07:16:50.930Z,99900
2018-06-13T07:17:56.101Z,99906
2018-06-13T07:19:02.356Z,99900
2018-06-13T07:20:07.059Z,99900
2018-06-13T07:21:11.934Z,99906
2018-06-13T07:22:17.730Z,99903
2018-06-13T07:23:22.894Z,99897
2018-06-13T07:24:27.859Z,99906
2018-06-13T07:25:32.727Z,99903
2018-06-13T07:26:38.321Z,99909
2018-06-13T07:27:43.868Z,99894
2018-06-13T07:28:48.755Z,99912
2018-06-13T07:29:53.919Z,99903
2018-06-13T07:30:59.920Z,99903
2018-06-13T07:32:05.061Z,99900
2018-06-13T07:33:09.945Z,99909
2018-06-13T07:34:15.083Z,99909
2018-06-13T07:35:20.226Z,99912
2018-06-13T07:36:26.176Z,99909
2018-06-13T07:37:31.623Z,99909
2018-06-13T07:38:36.779Z,99900
2018-06-13T07:39:42.560Z,99909
2018-06-13T07:40:47.435Z,99917
2018-06-13T07:41:52.307Z,99912
2018-06-13T07:42:57.950Z,99906
2018-06-13T07:44:02.952Z,99909
2018-06-13T07:45:08.105Z,99920
2018-06-13T07:46:13.322Z,99915
2018-06-13T07:47:18.960Z,99915
2018-06-13T07:48:24.420Z,99923
2018-06-13T07:49:44.577Z,99929
2018-06-13T07:50:50.254Z,99923
2018-06-13T07:51:55.648Z,99923
2018-06-13T07:53:01.434Z,99941
2018-06-13T07:54:06.057Z,99929
2018-06-13T07:55:11.293Z,99920
2018-06-13T07:56:16.629Z,99923
2018-06-13T07:57:21.793Z,99917
2018-06-13T07:58:27.360Z,99926
2018-06-13T07:59:32.222Z,99917
2018-06-13T08:00:37.725Z,99923
2018-06-13T08:01:42.880Z,99920
2018-06-13T08:02:47.746Z,99920
2018-06-13T08:03:53.407Z,99912
2018-06-13T08:04:59.037Z,99920
2018-06-13T08:06:04.508Z,99912
2018-06-13T08:07:09.673Z,99897
2018-06-13T08:08:14.845Z,99900
2018-06-13T08:09:19.439Z,99906
2018-06-13T08:10:24.871Z,99915
2018-06-13T08:11:29.776Z,99920
2018-06-13T08:12:35.184Z,99917
2018-06-13T08:13:40.107Z,99920
2018-06-13T08:14:44.697Z,99920
2018-06-13T08:15:50.684Z,99917
2018-06-13T08:16:56.309Z,99926
2018-06-13T08:18:01.652Z,99920
2018-06-13T08:19:06.523Z,99915
2018-06-13T08:20:11.720Z,99912
2018-06-13T08:21:17.200Z,99909
2018-06-13T08:22:22.764Z,99915
2018-06-13T08:23:27.919Z,99917
2018-06-13T08:24:32.854Z,99909
2018-06-13T08:25:38.347Z,99915
2018-06-13T08:26:43.507Z,99929
2018-06-13T08:27:48.902Z,99929
2018-06-13T08:28:54.057Z,99929
2018-06-13T08:29:59.489Z,99929
2018-06-13T08:31:05.276Z,99935
2018-06-13T08:32:10.729Z,99929
2018-06-13T08:33:15.593Z,99926
2018-06-13T08:34:21.006Z,99929
2018-06-13T08:35:26.191Z,99935
2018-06-13T08:36:31.619Z,99941
2018-06-13T08:37:36.707Z,99935
2018-06-13T08:38:41.598Z,99938
2018-06-13T08:39:47.360Z,99935
2018-06-13T08:40:52.119Z,99941
2018-06-13T08:41:57.007Z,99944
2018-06-13T08:43:02.252Z,99946
2018-06-13T08:44:07.436Z,99949
2018-06-13T08:45:12.050Z,99949
2018-06-13T08:46:17.197Z,99938
2018-06-13T08:47:22.621Z,99938
2018-06-13T08:48:27.728Z,99949
2018-06-13T08:49:32.891Z,99946
2018-06-13T08:50:38.548Z,99949
2018-06-13T08:51:44.331Z,99946
2018-06-13T08:52:49.762Z,99952
2018-06-13T08:53:54.908Z,99952
2018-06-13T08:55:00.053Z,99952
2018-06-13T08:56:04.926Z,99958
2018-06-13T08:57:10.366Z,99955
2018-06-13T08:58:15.770Z,99958
2018-06-13T08:59:21.076Z,99961
2018-06-13T09:00:26.437Z,99955
2018-06-13T09:01:31.621Z,99952
2018-06-13T09:02:36.778Z,99955
2018-06-13T09:03:42.462Z,99944
2018-06-13T09:04:47.614Z,99952
2018-06-13T09:05:52.486Z,99944
2018-06-13T09:06:58.199Z,99932
2018-06-13T09:08:03.106Z,99944
2018-06-13T09:09:08.537Z,99941
2018-06-13T09:10:13.814Z,99941
2018-06-13T09:11:18.876Z,99941
2018-06-13T09:12:24.039Z,99949
2018-06-13T09:13:29.852Z,99946
2018-06-13T09:14:35.005Z,99935
2018-06-13T09:15:40.008Z,99952
2018-06-13T09:16:45.439Z,99949
2018-06-13T09:17:50.875Z,99946
2018-06-13T09:18:56.284Z,99952
2018-06-13T09:20:01.733Z,99949
2018-06-13T09:21:06.052Z,99946
2018-06-13T09:22:11.180Z,99961
2018-06-13T09:23:16.609Z,99949
2018-06-13T09:24:21.752Z,99958
2018-06-13T09:25:27.218Z,99952
2018-06-13T09:26:32.649Z,99946
2018-06-13T09:27:38.053Z,99946
2018-06-13T09:28:43.072Z,99944
2018-06-13T09:29:48.244Z,99952
2018-06-13T09:30:53.931Z,99946
2018-06-13T09:31:59.243Z,99946
2018-06-13T09:33:04.676Z,99941
2018-06-13T09:34:09.813Z,99944
2018-06-13T09:35:14.418Z,99949
2018-06-13T09:36:19.583Z,99949
2018-06-13T09:37:25.535Z,99961
2018-06-13T09:38:31.007Z,99949
2018-06-13T09:39:36.122Z,99961
2018-06-13T09:40:41.008Z,99955
2018-06-13T09:41:46.166Z,99961
2018-06-13T09:42:51.999Z,99958
2018-06-13T09:43:57.253Z,99952
2018-06-13T09:45:02.555Z,99952
2018-06-13T09:46:13.471Z,99969
2018-06-13T09:47:24.543Z,99955
2018-06-13T09:48:30.378Z,99967
2018-06-13T09:49:35.260Z,99964
2018-06-13T09:50:40.690Z,99958
2018-06-13T09:51:46.103Z,99969
2018-06-13T09:52:51.012Z,99967
2018-06-13T09:53:56.470Z,99967
2018-06-13T09:55:01.608Z,99972
2018-06-13T09:56:05.928Z,99975
2018-06-13T09:57:11.368Z,99975
2018-06-13T09:58:17.046Z,99975
2018-06-13T09:59:22.530Z,99967
2018-06-13T10:00:42.895Z,99977
2018-06-13T10:01:47.859Z,99972
2018-06-13T10:02:53.062Z,99964
2018-06-13T10:03:58.662Z,99972
2018-06-13T10:05:03.560Z,99975
2018-06-13T10:06:08.449Z,99972
2018-06-13T10:07:13.755Z,99977
2018-06-13T10:08:19.194Z,99977
2018-06-13T10:09:24.556Z,99975
2018-06-13T10:10:29.748Z,99964
2018-06-13T10:11:34.902Z,99975
2018-06-13T10:12:40.322Z,99972
2018-06-13T10:13:45.480Z,99969
2018-06-13T10:14:50.481Z,99972
2018-06-13T10:15:55.789Z,99975
2018-06-13T10:17:00.111Z,99969
2018-06-13T10:18:04.978Z,99975
2018-06-13T10:19:09.832Z,99967
2018-06-13T10:20:15.000Z,99967
2018-06-13T10:21:20.142Z,99972
2018-06-13T10:22:25.836Z,99964
2018-06-13T10:23:30.821Z,99980
2018-06-13T10:24:36.096Z,99964
2018-06-13T10:25:41.243Z,99975
2018-06-13T10:26:46.531Z,99975
2018-06-13T10:27:51.772Z,99969
2018-06-13T10:28:57.149Z,99958
2018-06-13T10:30:02.186Z,99972
2018-06-13T10:31:07.908Z,99969
2018-06-13T10:32:13.054Z,99977
2018-06-13T10:33:17.654Z,99969
2018-06-13T10:34:22.685Z,99975
2018-06-13T10:35:28.057Z,99975
2018-06-13T10:36:33.080Z,99964
2018-06-13T10:37:38.841Z,99972
2018-06-13T10:38:44.024Z,99975
2018-06-13T10:39:49.430Z,99967
2018-06-13T10:40:54.582Z,99967
2018-06-13T10:41:59.476Z,99975
2018-06-13T10:43:04.960Z,99977
2018-06-13T10:44:10.393Z,99977
2018-06-13T10:45:15.543Z,99969
2018-06-13T10:46:20.920Z,99977
2018-06-13T10:47:26.087Z,99977
2018-06-13T10:48:32.349Z,99977
2018-06-13T10:49:37.600Z,99977
2018-06-13T10:50:42.458Z,99977
2018-06-13T10:51:48.187Z,99983
2018-06-13T10:52:53.497Z,99975
2018-06-13T10:53:58.661Z,99975
2018-06-13T10:55:04.078Z,99980
2018-06-13T10:56:09.229Z,99975
2018-06-13T10:57:14.411Z,99983
2018-06-13T10:58:19.519Z,99977
2018-06-13T10:59:24.688Z,99986
2018-06-13T11:00:29.861Z,99980
2018-06-13T11:01:35.015Z,99975
2018-06-13T11:02:40.667Z,99977
2018-06-13T11:03:46.175Z,99975
2018-06-13T11:04:51.058Z,99980
2018-06-13T11:05:56.500Z,99986
2018-06-13T11:07:02.032Z,99977
2018-06-13T11:08:06.071Z,99986
2018-06-13T11:09:10.940Z,99983
2018-06-13T11:10:16.628Z,99983
2018-06-13T11:11:21.523Z,99989
2018-06-13T11:12:27.384Z,99986
2018-06-13T11:13:32.532Z,99989
2018-06-13T11:14:37.726Z,99983
2018-06-13T11:15:43.412Z,99980
2018-06-13T11:16:48.850Z,99986
2018-06-13T11:17:54.283Z,99977
2018-06-13T11:18:59.967Z,99977
2018-06-13T11:20:05.092Z,99977
2018-06-13T11:21:10.249Z,99972
2018-06-13T11:22:15.378Z,99977
2018-06-13T11:23:20.855Z,99977
2018-06-13T11:24:27.150Z,99972
2018-06-13T11:25:32.600Z,99969
2018-06-13T11:26:38.058Z,99969
2018-06-13T11:27:43.176Z,99969
2018-06-13T11:28:48.817Z,99969
2018-06-13T11:29:54.260Z,99967
2018-06-13T11:30:59.681Z,99955
2018-06-13T11:32:04.549Z,99969
2018-06-13T11:33:09.465Z,99958
2018-06-13T11:34:14.597Z,99964
2018-06-13T11:35:19.478Z,99972
2018-06-13T11:36:39.917Z,99958
2018-06-13T11:37:45.242Z,99964
2018-06-13T11:38:50.397Z,99969
2018-06-13T11:39:56.186Z,99961
2018-06-13T11:41:01.814Z,99961
2018-06-13T11:42:06.981Z,99972
2018-06-13T11:43:12.396Z,99977
2018-06-13T11:44:17.417Z,99958
2018-06-13T11:45:22.848Z,99967
2018-06-13T11:46:27.987Z,99961
2018-06-13T11:47:33.407Z,99969
2018-06-13T11:48:38.825Z,99964
2018-06-13T11:49:43.966Z,99964
2018-06-13T11:50:49.941Z,99961
2018-06-13T11:51:55.662Z,99980
2018-06-13T11:53:00.814Z,99972
2018-06-13T11:54:05.967Z,99972
2018-06-13T11:55:11.749Z,99975
2018-06-13T11:56:17.186Z,99975
2018-06-13T11:57:22.548Z,99969
2018-06-13T11:58:28.323Z,99969
2018-06-13T11:59:33.786Z,99975
2018-06-13T12:00:39.572Z,99972
2018-06-13T12:01:45.076Z,99975
2018-06-13T12:02:50.669Z,99972
2018-06-13T12:03:56.242Z,99967
2018-06-13T12:05:01.397Z,99972
2018-06-13T12:06:06.403Z,99975
2018-06-13T12:07:12.005Z,99964
2018-06-13T12:08:17.170Z,99967
2018-06-13T12:09:22.620Z,99969
2018-06-13T12:10:29.060Z,99972
2018-06-13T12:11:34.605Z,99969
2018-06-13T12:12:40.546Z,99969
2018-06-13T12:13:45.900Z,99975
2018-06-13T12:14:51.057Z,99975
2018-06-13T12:15:56.746Z,99972
2018-06-13T12:17:02.419Z,99975
2018-06-13T12:18:06.538Z,99972
2018-06-13T12:19:11.768Z,99972
2018-06-13T12:20:17.078Z,99983
2018-06-13T12:21:22.254Z,99972
2018-06-13T12:22:27.612Z,99967
2018-06-13T12:23:33.065Z,99977
2018-06-13T12:24:38.500Z,99980
2018-06-13T12:25:43.381Z,99989
2018-06-13T12:26:47.960Z,99972
2018-06-13T12:27:52.901Z,99977
2018-06-13T12:28:58.363Z,99969
2018-06-13T12:30:03.504Z,99975
2018-06-13T12:31:08.486Z,99986
2018-06-13T12:32:13.640Z,99977
2018-06-13T12:33:19.086Z,99980
2018-06-13T12:34:24.705Z,99986
2018-06-13T12:35:29.612Z,99983
2018-06-13T12:36:35.163Z,99986
2018-06-13T12:37:40.029Z,99980
2018-06-13T12:38:45.499Z,99977
2018-06-13T12:39:50.315Z,99977
2018-06-13T12:40:55.200Z,99983
2018-06-13T12:42:00.084Z,99983
2018-06-13T12:43:04.931Z,99989
2018-06-13T12:44:09.720Z,99980
2018-06-13T12:45:14.867Z,99983
2018-06-13T12:46:19.702Z,99975
2018-06-13T12:47:25.152Z,99977
2018-06-13T12:48:31.124Z,99977
2018-06-13T12:49:36.562Z,99975
2018-06-13T12:50:42.001Z,99972
2018-06-13T12:51:46.991Z,99969
2018-06-13T12:52:51.606Z,99975
2018-06-13T12:53:56.490Z,99975
2018-06-13T12:55:01.890Z,99975
2018-06-13T12:56:06.400Z,99975
2018-06-13T12:57:11.843Z,99975
2018-06-13T12:58:17.249Z,99975
2018-06-13T12:59:22.684Z,99975
2018-06-13T13:00:27.786Z,99977
2018-06-13T13:01:33.219Z,99980
2018-06-13T13:02:38.695Z,99975
2018-06-13T13:03:44.394Z,99977
2018-06-13T13:04:49.638Z,99972
2018-06-13T13:05:55.074Z,99975
2018-06-13T13:07:00.925Z,99967
2018-06-13T13:08:06.077Z,99972
2018-06-13T13:09:10.668Z,99977
2018-06-13T13:10:16.747Z,99980
2018-06-13T13:11:21.685Z,99972
2018-06-13T13:12:27.239Z,99980
2018-06-13T13:13:32.672Z,99975
2018-06-13T13:14:37.834Z,99983
2018-06-13T13:15:43.343Z,99977
2018-06-13T13:16:48.545Z,99975
2018-06-13T13:17:53.909Z,99980
2018-06-13T13:18:59.605Z,99992
2018-06-13T13:20:05.233Z,99983
2018-06-13T13:21:10.327Z,99986
2018-06-13T13:22:15.732Z,99977
2018-06-13T13:23:20.891Z,99975
2018-06-13T13:24:40.561Z,99977
2018-06-13T13:25:45.744Z,99972
2018-06-13T13:26:50.616Z,99975
2018-06-13T13:27:56.454Z,99972
2018-06-13T13:29:01.698Z,99983
2018-06-13T13:30:06.276Z,99983
2018-06-13T13:31:11.858Z,99972
2018-06-13T13:32:17.002Z,99980
2018-06-13T13:33:22.155Z,99983
2018-06-13T13:34:28.020Z,99980
2018-06-13T13:35:33.170Z,99983
2018-06-13T13:36:38.626Z,99975
2018-06-13T13:37:42.938Z,99977
2018-06-13T13:38:48.369Z,99972
2018-06-13T13:39:53.700Z,99969
2018-06-13T13:40:58.855Z,99975
2018-06-13T13:42:04.027Z,99980
2018-06-13T13:43:09.638Z,99989
2018-06-13T13:44:14.791Z,99986
2018-06-13T13:45:19.993Z,99980
2018-06-13T13:46:25.408Z,99980
2018-06-13T13:47:30.306Z,99977
2018-06-13T13:48:36.044Z,99986
2018-06-13T13:49:41.481Z,99977
2018-06-13T13:50:46.355Z,99980
2018-06-13T13:51:51.355Z,99983
2018-06-13T13:52:56.512Z,99989
2018-06-13T13:54:01.933Z,99986
2018-06-13T13:55:07.149Z,99992
2018-06-13T13:56:12.310Z,99983
2018-06-13T13:57:17.747Z,99986
2018-06-13T13:58:23.171Z,99989
2018-06-13T13:59:28.620Z,100001
2018-06-13T14:00:34.303Z,99998
2018-06-13T14:01:39.805Z,99995
2018-06-13T14:02:44.964Z,100001